createdAt,value
2023-03-10T00:00:58.488Z,1.20
2023-03-10T00:03:24.966Z,1.10
2023-03-10T00:05:51.494Z,1.25
2023-03-10T00:08:17.988Z,1.40
2023-03-10T00:10:44.462Z,1.13
2023-03-10T00:13:10.990Z,1.48
2023-03-10T00:15:37.539Z,0.80
2023-03-10T00:18:04.150Z,1.08
2023-03-10T00:20:30.660Z,1.67
2023-03-10T00:22:57.433Z,0.95
2023-03-10T00:25:23.923Z,1.33
2023-03-10T00:27:52.653Z,1.08
2023-03-10T00:30:19.621Z,0.98
2023-03-10T00:32:46.161Z,1.10
2023-03-10T00:35:12.751Z,0.88
2023-03-10T00:37:39.324Z,1.40
2023-03-10T00:40:07.979Z,1.27
2023-03-10T00:42:34.515Z,0.80
2023-03-10T00:45:01.054Z,1.13
2023-03-10T00:47:27.553Z,1.40
2023-03-10T00:49:54.049Z,0.98
2023-03-10T00:52:20.573Z,1.65
2023-03-10T00:54:47.091Z,1.08
2023-03-10T00:57:13.584Z,0.80
2023-03-10T00:59:49.938Z,1.20
2023-03-10T01:02:18.057Z,1.38
2023-03-10T01:04:44.790Z,1.08
2023-03-10T01:07:11.307Z,1.17
2023-03-10T01:09:37.763Z,0.98
2023-03-10T01:12:04.303Z,1.10
2023-03-10T01:14:31.968Z,0.68
2023-03-10T01:16:59.608Z,0.77
2023-03-10T01:19:26.241Z,0.98
2023-03-10T01:21:52.729Z,1.00
2023-03-10T01:24:19.401Z,0.95
2023-03-10T01:26:45.941Z,1.25
2023-03-10T01:29:12.397Z,1.00
2023-03-10T01:31:38.945Z,1.33
2023-03-10T01:34:05.432Z,0.95
2023-03-10T01:36:32.027Z,1.50
2023-03-10T01:38:58.621Z,1.75
2023-03-10T01:41:25.672Z,1.52
2023-03-10T01:43:53.645Z,1.20
2023-03-10T01:46:22.991Z,1.10
2023-03-10T01:48:49.745Z,0.88
2023-03-10T01:51:16.393Z,0.90
2023-03-10T01:53:42.944Z,0.90
2023-03-10T01:56:09.466Z,1.23
2023-03-10T01:58:40.760Z,0.90
2023-03-10T02:01:08.035Z,1.48
2023-03-10T02:03:49.974Z,1.02
2023-03-10T02:06:19.432Z,1.27
2023-03-10T02:08:47.680Z,1.00
2023-03-10T02:11:15.297Z,1.08
2023-03-10T02:13:41.773Z,1.00
2023-03-10T02:16:08.382Z,1.30
2023-03-10T02:18:35.065Z,1.20
2023-03-10T02:21:04.317Z,1.17
2023-03-10T02:23:47.747Z,1.50
2023-03-10T02:26:23.063Z,0.82
2023-03-10T02:28:50.233Z,1.38
2023-03-10T02:31:17.282Z,1.02
2023-03-10T02:33:44.454Z,1.20
2023-03-10T02:36:15.920Z,1.02
2023-03-10T02:38:42.399Z,0.77
2023-03-10T02:41:23.795Z,1.08
2023-03-10T02:43:50.496Z,1.00
2023-03-10T02:46:17.248Z,1.05
2023-03-10T02:48:43.932Z,0.88
2023-03-10T02:51:13.265Z,1.02
2023-03-10T02:53:39.766Z,0.80
2023-03-10T02:56:06.355Z,0.82
2023-03-10T02:58:33.317Z,1.25
2023-03-10T03:00:59.988Z,0.80
2023-03-10T03:03:27.069Z,1.00
2023-03-10T03:05:53.573Z,0.88
2023-03-10T03:08:20.152Z,1.08
2023-03-10T03:10:46.785Z,0.90
2023-03-10T03:13:13.246Z,1.20
2023-03-10T03:15:40.028Z,2.10
2023-03-10T03:18:06.597Z,0.95
2023-03-10T03:20:33.665Z,0.95
2023-03-10T03:23:00.223Z,1.10
2023-03-10T03:25:28.082Z,0.93
2023-03-10T03:27:54.926Z,1.00
2023-03-10T03:30:23.537Z,0.93
2023-03-10T03:32:50.065Z,1.20
2023-03-10T03:35:18.430Z,1.90
2023-03-10T03:37:44.938Z,1.00
2023-03-10T03:40:13.033Z,1.13
2023-03-10T03:42:43.315Z,1.00
2023-03-10T03:45:10.430Z,0.85
2023-03-10T03:47:36.913Z,0.95
2023-03-10T03:50:04.080Z,1.42
2023-03-10T03:52:30.596Z,0.80
2023-03-10T03:54:57.076Z,0.90
2023-03-10T03:57:23.620Z,0.80
2023-03-10T03:59:50.255Z,1.30
2023-03-10T04:02:16.799Z,0.80
2023-03-10T04:04:43.296Z,0.85
2023-03-10T04:07:09.795Z,1.00
2023-03-10T04:09:38.602Z,0.80
2023-03-10T04:12:05.285Z,1.00
2023-03-10T04:14:31.743Z,1.00
2023-03-10T04:16:58.249Z,0.85
2023-03-10T04:19:24.758Z,1.00
2023-03-10T04:21:51.210Z,0.57
2023-03-10T04:24:17.726Z,1.25
2023-03-10T04:26:44.533Z,0.88
2023-03-10T04:29:11.012Z,0.80
2023-03-10T04:31:37.585Z,1.40
2023-03-10T04:34:04.226Z,1.10
2023-03-10T04:36:30.708Z,0.75
2023-03-10T04:38:57.249Z,1.30
2023-03-10T04:41:23.757Z,1.00
2023-03-10T04:43:50.506Z,0.90
2023-03-10T04:46:17.364Z,0.57
2023-03-10T04:48:44.036Z,1.23
2023-03-10T04:51:11.171Z,0.93
2023-03-10T04:53:38.209Z,0.95
2023-03-10T04:56:06.402Z,0.98
2023-03-10T04:58:32.972Z,1.05
2023-03-10T05:01:03.461Z,0.68
2023-03-10T05:03:30.328Z,1.13
2023-03-10T05:05:56.894Z,1.00
2023-03-10T05:08:23.346Z,0.80
2023-03-10T05:10:49.881Z,0.98
2023-03-10T05:13:16.387Z,1.10
2023-03-10T05:15:43.201Z,0.73
2023-03-10T05:18:10.943Z,0.98
2023-03-10T05:20:37.757Z,0.90
2023-03-10T05:23:04.280Z,1.13
2023-03-10T05:25:30.846Z,1.40
2023-03-10T05:27:57.386Z,1.23
2023-03-10T05:30:23.948Z,0.80
2023-03-10T05:32:50.500Z,1.00
2023-03-10T05:35:17.069Z,1.30
2023-03-10T05:37:44.661Z,0.95
2023-03-10T05:40:17.689Z,1.02
2023-03-10T05:42:44.175Z,0.60
2023-03-10T05:45:10.886Z,0.80
2023-03-10T05:47:37.452Z,0.82
2023-03-10T05:50:04.713Z,0.80
2023-03-10T05:52:31.198Z,0.90
2023-03-10T05:54:57.716Z,0.88
2023-03-10T05:57:24.193Z,0.80
2023-03-10T05:59:50.641Z,0.88
2023-03-10T06:02:17.118Z,1.02
2023-03-10T06:04:43.592Z,1.05
2023-03-10T06:07:10.104Z,1.05
2023-03-10T06:09:36.575Z,1.05
2023-03-10T06:12:03.082Z,1.35
2023-03-10T06:14:29.573Z,1.20
2023-03-10T06:16:57.382Z,0.70
2023-03-10T06:19:24.529Z,1.00
2023-03-10T06:21:51.040Z,0.90
2023-03-10T06:24:17.531Z,0.93
2023-03-10T06:26:44.013Z,0.90
2023-03-10T06:29:10.527Z,0.82
2023-03-10T06:31:37.028Z,0.90
2023-03-10T06:34:04.613Z,0.90
2023-03-10T06:36:34.492Z,0.88
2023-03-10T06:39:00.949Z,0.93
2023-03-10T06:41:28.112Z,0.90
2023-03-10T06:43:54.613Z,1.00
2023-03-10T06:46:21.225Z,0.93
2023-03-10T06:48:47.729Z,1.20
2023-03-10T06:51:15.457Z,1.02
2023-03-10T06:53:41.940Z,0.85
2023-03-10T06:56:10.867Z,1.23
2023-03-10T06:58:37.509Z,0.80
2023-03-10T07:01:04.744Z,0.88
2023-03-10T07:03:31.509Z,0.80
2023-03-10T07:06:00.993Z,0.93
2023-03-10T07:08:28.268Z,0.82
2023-03-10T07:10:54.867Z,1.05
2023-03-10T07:13:22.090Z,1.20
2023-03-10T07:15:48.762Z,0.95
2023-03-10T07:18:15.663Z,0.70
2023-03-10T07:20:44.728Z,0.80
2023-03-10T07:23:11.753Z,1.35
2023-03-10T07:25:39.080Z,0.95
2023-03-10T07:28:06.128Z,1.00
2023-03-10T07:30:33.240Z,1.35
2023-03-10T07:32:59.830Z,0.80
2023-03-10T07:35:26.362Z,0.70
2023-03-10T07:37:52.830Z,0.98
2023-03-10T07:40:22.843Z,1.05
2023-03-10T07:42:49.309Z,1.20
2023-03-10T07:45:15.786Z,0.90
2023-03-10T07:47:42.269Z,1.27
2023-03-10T07:50:09.148Z,1.00
2023-03-10T07:52:35.647Z,0.90
2023-03-10T07:55:02.156Z,1.10
2023-03-10T07:57:29.115Z,0.68
2023-03-10T07:59:55.771Z,0.80
2023-03-10T08:02:22.371Z,1.25
2023-03-10T08:04:48.933Z,1.20
2023-03-10T08:07:15.461Z,1.48
2023-03-10T08:09:41.967Z,0.77
2023-03-10T08:12:08.635Z,0.82
2023-03-10T08:14:35.222Z,1.13
2023-03-10T08:17:01.680Z,0.55
2023-03-10T08:19:28.510Z,1.20
2023-03-10T08:21:55.808Z,0.70
2023-03-10T08:24:22.288Z,1.55
2023-03-10T08:26:48.769Z,0.80
2023-03-10T08:29:15.362Z,0.70
2023-03-10T08:31:41.861Z,1.92
2023-03-10T08:34:08.611Z,0.90
2023-03-10T08:36:35.403Z,0.90
2023-03-10T08:39:02.334Z,1.77
2023-03-10T08:41:37.277Z,1.05
2023-03-10T08:44:04.589Z,0.80
2023-03-10T08:46:32.190Z,1.00
2023-03-10T08:48:59.269Z,0.95
2023-03-10T08:51:26.109Z,1.02
2023-03-10T08:53:52.739Z,1.02
2023-03-10T08:56:20.090Z,1.08
2023-03-10T08:58:47.089Z,1.33
2023-03-10T09:01:14.628Z,1.30
2023-03-10T09:03:42.465Z,1.00
2023-03-10T09:06:09.370Z,1.00
2023-03-10T09:08:36.055Z,1.05
2023-03-10T09:11:02.581Z,0.80
2023-03-10T09:13:29.134Z,1.15
2023-03-10T09:15:55.688Z,1.00
2023-03-10T09:18:22.298Z,1.10
2023-03-10T09:20:49.074Z,1.00
2023-03-10T09:23:15.622Z,1.08
2023-03-10T09:25:42.274Z,1.20
2023-03-10T09:28:09.806Z,1.05
2023-03-10T09:30:37.438Z,1.17
2023-03-10T09:33:08.532Z,0.70
2023-03-10T09:35:39.364Z,0.80
2023-03-10T09:38:08.455Z,1.13
2023-03-10T09:40:36.456Z,1.83
2023-03-10T09:43:14.719Z,1.10
2023-03-10T09:45:47.329Z,1.02
2023-03-10T09:48:17.244Z,1.00
2023-03-10T09:50:45.511Z,0.88
2023-03-10T09:53:11.945Z,0.80
2023-03-10T09:55:47.931Z,1.20
2023-03-10T09:58:36.659Z,0.88
2023-03-10T10:01:03.797Z,0.80
2023-03-10T10:03:35.213Z,1.05
2023-03-10T10:06:14.444Z,1.02
2023-03-10T10:08:41.393Z,1.15
2023-03-10T10:11:13.173Z,0.90
2023-03-10T10:13:42.339Z,1.60
2023-03-10T10:16:33.534Z,1.35
2023-03-10T10:19:07.039Z,0.65
2023-03-10T10:21:42.712Z,0.60
2023-03-10T10:24:09.615Z,0.82
2023-03-10T10:26:36.086Z,0.77
2023-03-10T10:29:12.138Z,1.02
2023-03-10T10:31:38.665Z,0.98
2023-03-10T10:34:07.202Z,0.75
2023-03-10T10:36:35.347Z,0.95
2023-03-10T10:39:02.718Z,1.27
2023-03-10T10:41:30.726Z,0.88
2023-03-10T10:43:59.457Z,1.20
2023-03-10T10:46:28.020Z,0.80
2023-03-10T10:49:01.823Z,0.80
2023-03-10T10:51:29.539Z,0.70
2023-03-10T10:54:00.751Z,0.73
2023-03-10T10:56:28.746Z,0.80
2023-03-10T10:59:13.606Z,0.77
2023-03-10T11:02:06.281Z,0.77
2023-03-10T11:04:43.783Z,0.85
2023-03-10T11:07:12.100Z,0.70
2023-03-10T11:09:38.666Z,0.73
2023-03-10T11:12:05.512Z,1.00
2023-03-10T11:14:49.432Z,0.77
2023-03-10T11:19:51.858Z,1.70
2023-03-10T11:22:18.294Z,1.17
2023-03-10T11:25:01.501Z,0.63
2023-03-10T11:27:30.767Z,0.80
2023-03-10T11:30:06.063Z,0.85
2023-03-10T11:32:47.985Z,1.38
2023-03-10T11:35:17.366Z,0.95
2023-03-10T11:37:46.926Z,0.70
2023-03-10T11:40:20.077Z,0.70
2023-03-10T11:43:00.393Z,0.60
2023-03-10T11:45:41.768Z,0.80
2023-03-10T11:48:14.295Z,0.90
2023-03-10T11:50:55.118Z,0.55
2023-03-10T11:53:33.585Z,0.88
2023-03-10T11:56:01.413Z,0.93
2023-03-10T11:58:30.959Z,0.88
2023-03-10T12:00:58.114Z,0.70
2023-03-10T12:03:30.740Z,0.80
2023-03-10T12:06:00.691Z,1.00
2023-03-10T12:08:33.340Z,0.60
2023-03-10T12:11:00.480Z,0.60
2023-03-10T12:13:28.813Z,0.80
2023-03-10T12:16:02.401Z,1.73
2023-03-10T12:21:13.894Z,1.02
2023-03-10T12:23:44.728Z,0.73
2023-03-10T12:26:11.271Z,0.88
2023-03-10T12:28:37.979Z,1.25
2023-03-10T12:31:10.572Z,1.10
2023-03-10T12:33:41.460Z,1.13
2023-03-10T12:36:17.300Z,0.93
2023-03-10T12:38:43.865Z,0.95
2023-03-10T12:41:10.868Z,0.90
2023-03-10T12:43:37.466Z,0.73
2023-03-10T12:46:04.936Z,0.70
2023-03-10T12:48:32.775Z,0.60
2023-03-10T12:51:02.750Z,0.70
2023-03-10T12:53:39.719Z,0.60
2023-03-10T12:56:11.932Z,0.65
2023-03-10T12:58:43.530Z,0.50
2023-03-10T13:01:11.948Z,0.63
2023-03-10T13:03:44.214Z,0.43
2023-03-10T13:06:11.045Z,0.50
2023-03-10T13:08:40.646Z,0.40
2023-03-10T13:11:13.264Z,0.50
2023-03-10T13:13:39.948Z,0.60
2023-03-10T13:16:07.266Z,0.50
2023-03-10T13:18:34.190Z,0.60
2023-03-10T13:21:01.766Z,0.80
2023-03-10T13:23:34.348Z,1.08
2023-03-10T13:26:02.776Z,0.90
2023-03-10T13:28:31.167Z,0.70
2023-03-10T13:31:09.730Z,0.80
2023-03-10T13:33:50.166Z,0.55
2023-03-10T13:36:22.131Z,0.47
2023-03-10T13:38:50.029Z,0.40
2023-03-10T13:41:16.698Z,0.70
2023-03-10T13:43:44.394Z,0.68
2023-03-10T13:46:18.411Z,0.55
2023-03-10T13:48:45.889Z,0.90
2023-03-10T13:51:21.736Z,0.57
2023-03-10T13:53:52.539Z,0.57
2023-03-10T13:56:26.549Z,0.70
2023-03-10T13:58:58.292Z,0.57
2023-03-10T14:01:26.585Z,0.68
2023-03-10T14:04:06.016Z,0.40
2023-03-10T14:06:32.629Z,0.73
2023-03-10T14:09:15.775Z,0.77
2023-03-10T14:11:44.880Z,0.60
2023-03-10T14:14:11.923Z,0.70
2023-03-10T14:16:52.469Z,0.70
2023-03-10T14:19:39.428Z,0.50
2023-03-10T14:22:24.829Z,1.40
2023-03-10T14:24:51.862Z,0.50
2023-03-10T14:27:18.600Z,0.95
2023-03-10T14:29:52.475Z,0.63
2023-03-10T14:32:19.282Z,0.40
2023-03-10T14:34:46.338Z,0.73
2023-03-10T14:37:13.105Z,0.70
2023-03-10T14:39:39.655Z,0.60
2023-03-10T14:42:06.370Z,0.90
2023-03-10T14:44:33.224Z,1.75
2023-03-10T14:46:59.989Z,0.50
2023-03-10T14:49:27.625Z,0.60
2023-03-10T14:51:54.188Z,0.63
2023-03-10T14:54:22.237Z,1.00
2023-03-10T14:56:51.513Z,0.57
2023-03-10T14:59:18.545Z,0.40
2023-03-10T15:01:45.269Z,0.63
2023-03-10T15:04:20.547Z,0.60
2023-03-10T15:06:47.156Z,1.65
2023-03-10T15:09:13.625Z,1.25
2023-03-10T15:11:40.650Z,1.42
2023-03-10T15:14:17.785Z,0.60
2023-03-10T15:16:44.410Z,0.80
2023-03-10T15:19:22.364Z,0.50
2023-03-10T15:21:49.018Z,1.05
2023-03-10T15:24:15.694Z,1.10
2023-03-10T15:26:42.205Z,0.82
2023-03-10T15:29:13.299Z,1.20
2023-03-10T15:31:39.926Z,0.50
2023-03-10T15:34:07.254Z,0.55
2023-03-10T15:36:34.444Z,1.25
2023-03-10T15:39:01.073Z,0.60
2023-03-10T15:41:28.158Z,0.70
2023-03-10T15:43:56.761Z,0.70
2023-03-10T15:46:23.337Z,1.10
2023-03-10T15:48:49.855Z,0.60
2023-03-10T15:51:18.058Z,0.70
2023-03-10T15:53:45.194Z,1.00
2023-03-10T15:56:11.778Z,0.43
2023-03-10T15:58:38.282Z,0.60
2023-03-10T16:01:08.768Z,0.60
2023-03-10T16:03:36.162Z,0.80
2023-03-10T16:06:03.090Z,0.45
2023-03-10T16:08:29.703Z,0.80
2023-03-10T16:10:56.370Z,0.88
2023-03-10T16:13:23.891Z,0.60
2023-03-10T16:15:51.795Z,0.65
2023-03-10T16:18:18.314Z,0.60
2023-03-10T16:20:44.785Z,0.50
2023-03-10T16:23:11.243Z,0.52
2023-03-10T16:25:37.720Z,0.47
2023-03-10T16:28:04.242Z,0.60
2023-03-10T16:30:30.779Z,1.08
2023-03-10T16:33:00.820Z,1.05
2023-03-10T16:35:27.439Z,1.27
2023-03-10T16:37:53.951Z,1.10
2023-03-10T16:40:20.395Z,1.85
2023-03-10T16:42:46.850Z,2.10
2023-03-10T16:45:13.945Z,1.80
2023-03-10T16:47:41.202Z,0.82
2023-03-10T16:50:08.381Z,0.50
2023-03-10T16:52:38.877Z,0.70
2023-03-10T16:55:06.098Z,0.90
2023-03-10T16:57:32.546Z,0.63
2023-03-10T16:59:59.343Z,0.73
2023-03-10T17:02:25.833Z,0.93
2023-03-10T17:04:53.463Z,1.45
2023-03-10T17:07:19.960Z,1.10
2023-03-10T17:09:46.446Z,0.60
2023-03-10T17:12:12.910Z,0.82
2023-03-10T17:14:39.427Z,1.10
2023-03-10T17:17:07.762Z,1.20
2023-03-10T17:19:34.488Z,0.68
2023-03-10T17:22:00.997Z,0.80
2023-03-10T17:24:27.860Z,0.70
2023-03-10T17:26:54.361Z,0.80
2023-03-10T17:29:20.876Z,0.88
2023-03-10T17:31:50.486Z,0.43
2023-03-10T17:34:17.978Z,0.70
2023-03-10T17:36:45.092Z,0.52
2023-03-10T17:39:15.929Z,0.63
2023-03-10T17:41:42.524Z,1.10
2023-03-10T17:44:08.974Z,0.50
2023-03-10T17:46:35.429Z,1.50
2023-03-10T17:49:02.029Z,0.68
2023-03-10T17:51:29.581Z,0.70
2023-03-10T17:54:01.102Z,0.75
2023-03-10T17:56:28.125Z,1.15
2023-03-10T17:58:55.339Z,0.80
2023-03-10T18:01:28.655Z,0.80
2023-03-10T18:03:56.287Z,1.63
2023-03-10T18:06:24.556Z,0.82
2023-03-10T18:08:51.492Z,1.05
2023-03-10T18:11:18.992Z,1.17
2023-03-10T18:13:45.508Z,1.80
2023-03-10T18:16:15.615Z,2.95
2023-03-10T18:18:42.204Z,2.20
2023-03-10T18:21:09.194Z,1.65
2023-03-10T18:23:35.837Z,1.73
2023-03-10T18:26:05.512Z,1.90
2023-03-10T18:28:31.955Z,0.95
2023-03-10T18:30:58.476Z,1.70
2023-03-10T18:33:24.953Z,1.33
2023-03-10T18:35:51.457Z,1.92
2023-03-10T18:38:18.393Z,1.58
2023-03-10T18:40:44.882Z,1.02
2023-03-10T18:43:11.355Z,1.38
2023-03-10T18:45:43.973Z,1.40
2023-03-10T18:48:10.429Z,1.60
2023-03-10T18:50:36.893Z,1.70
2023-03-10T18:53:03.393Z,2.25
2023-03-10T18:55:29.840Z,4.88
2023-03-10T18:57:56.601Z,2.63
2023-03-10T19:00:23.837Z,5.30
2023-03-10T19:02:51.340Z,3.85
2023-03-10T19:05:18.117Z,4.90
2023-03-10T19:07:44.617Z,3.10
2023-03-10T19:10:14.905Z,2.95
2023-03-10T19:12:42.815Z,2.97
2023-03-10T19:15:11.254Z,2.90
2023-03-10T19:17:37.885Z,6.22
2023-03-10T19:20:05.733Z,3.20
2023-03-10T19:22:34.266Z,3.65
2023-03-10T19:25:02.538Z,3.42
2023-03-10T19:27:29.493Z,2.50
2023-03-10T19:29:55.951Z,2.42
2023-03-10T19:32:22.755Z,4.00
2023-03-10T19:34:49.316Z,3.08
2023-03-10T19:37:15.902Z,4.53
2023-03-10T19:39:42.799Z,3.75
2023-03-10T19:42:09.267Z,3.67
2023-03-10T19:44:38.442Z,10.00
2023-03-10T19:47:04.951Z,20.60
2023-03-10T19:49:34.246Z,12.27
2023-03-10T19:52:01.340Z,4.30
2023-03-10T19:54:27.910Z,15.40
2023-03-10T19:56:54.420Z,13.75
2023-03-10T19:59:20.946Z,9.00
2023-03-10T20:01:49.371Z,5.75
2023-03-10T20:04:16.334Z,3.60
2023-03-10T20:06:42.826Z,3.80
2023-03-10T20:09:10.640Z,6.93
2023-03-10T20:11:38.317Z,5.28
2023-03-10T22:29:15.053Z,1.60
2023-03-10T22:31:41.549Z,1.63
2023-03-10T22:34:08.003Z,2.85
2023-03-10T22:36:34.631Z,1.10
2023-03-10T22:39:01.082Z,1.30
2023-03-10T22:41:27.989Z,1.30
2023-03-10T22:43:56.099Z,1.17
2023-03-10T22:46:22.989Z,1.10
2023-03-10T22:48:49.491Z,1.40
2023-03-10T22:51:17.560Z,1.38
2023-03-10T22:53:44.367Z,1.15
2023-03-10T22:56:10.869Z,1.50
2023-03-10T22:58:37.757Z,0.98
2023-03-10T23:01:06.433Z,1.23
2023-03-10T23:03:34.093Z,1.20
2023-03-10T23:06:03.203Z,0.70
2023-03-10T23:08:29.786Z,1.20
2023-03-10T23:10:56.280Z,1.60
2023-03-10T23:13:22.838Z,1.08
2023-03-10T23:15:49.358Z,0.85
2023-03-10T23:18:15.871Z,0.90
2023-03-10T23:20:47.789Z,1.20
2023-03-10T23:23:15.148Z,0.80
2023-03-10T23:25:42.911Z,0.90
2023-03-10T23:28:10.425Z,0.80
2023-03-10T23:30:38.181Z,0.60
2023-03-10T23:33:05.387Z,0.50
2023-03-10T23:35:32.624Z,0.70
2023-03-10T23:38:02.562Z,1.00
2023-03-10T23:40:29.962Z,0.80
2023-03-10T23:42:57.466Z,0.80
2023-03-10T23:45:24.727Z,0.57
2023-03-10T23:47:51.724Z,1.00
2023-03-10T23:50:18.176Z,0.82
2023-03-10T23:52:45.402Z,0.90
2023-03-10T23:55:13.643Z,1.05
2023-03-10T23:57:40.142Z,0.70
